createdAt,value
2023-01-09T00:02:15.328Z,44.15
2023-01-09T00:05:02.268Z,47.67
2023-01-09T00:07:36.324Z,49.63
2023-01-09T00:10:24.211Z,44.25
2023-01-09T00:12:58.289Z,43.38
2023-01-09T00:15:46.237Z,46.40
2023-01-09T00:18:20.307Z,43.25
2023-01-09T00:21:09.228Z,51.75
2023-01-09T00:23:51.208Z,43.78
2023-01-09T00:26:39.272Z,46.83
2023-01-09T00:29:13.301Z,43.33
2023-01-09T00:32:00.269Z,40.67
2023-01-09T00:34:42.257Z,43.00
2023-01-09T00:37:30.240Z,41.58
2023-01-09T00:40:04.330Z,42.55
2023-01-09T00:42:58.263Z,40.65
2023-01-09T00:45:40.320Z,41.20
2023-01-09T00:48:34.276Z,39.97
2023-01-09T00:51:08.298Z,48.13
2023-01-09T00:53:56.229Z,48.90
2023-01-09T00:56:37.212Z,41.65
2023-01-09T00:59:25.230Z,49.50
2023-01-09T01:01:59.500Z,48.28
2023-01-09T01:05:05.236Z,51.35
2023-01-09T01:07:39.382Z,47.00
2023-01-09T01:10:28.236Z,52.42
2023-01-09T01:13:02.359Z,49.58
2023-01-09T01:15:50.213Z,48.75
2023-01-09T01:18:24.329Z,46.67
2023-01-09T01:21:20.267Z,56.78
2023-01-09T01:24:01.265Z,46.90
2023-01-09T01:26:55.219Z,55.13
2023-01-09T01:29:42.235Z,54.75
2023-01-09T01:32:16.361Z,48.35
2023-01-09T01:35:04.241Z,47.20
2023-01-09T01:37:45.231Z,45.75
2023-01-09T01:40:41.249Z,52.40
2023-01-09T01:43:29.235Z,49.30
2023-01-09T01:46:10.305Z,48.40
2023-01-09T01:49:06.210Z,50.97
2023-01-09T01:51:55.235Z,47.60
2023-01-09T01:54:38.256Z,52.33
2023-01-09T01:57:25.278Z,49.88
2023-01-09T02:00:03.006Z,53.80
2023-01-09T02:02:52.283Z,48.80
2023-01-09T02:05:26.350Z,51.47
2023-01-09T02:08:15.207Z,53.72
2023-01-09T02:10:49.345Z,55.80
2023-01-09T02:13:37.265Z,51.05
2023-01-09T02:16:29.337Z,49.97
2023-01-09T02:19:25.241Z,50.13
2023-01-09T02:22:02.342Z,56.42
2023-01-09T02:25:02.241Z,49.92
2023-01-09T02:28:02.230Z,48.58
2023-01-09T02:31:02.231Z,48.33
2023-01-09T02:33:56.264Z,52.22
2023-01-09T02:36:45.319Z,53.65
2023-01-09T02:39:59.236Z,58.67
2023-01-09T02:42:33.303Z,55.70
2023-01-09T02:45:20.228Z,61.55
2023-01-09T02:47:54.369Z,61.60
2023-01-09T02:50:49.291Z,57.22
2023-01-09T02:53:23.332Z,60.40
2023-01-09T02:56:31.244Z,60.45
2023-01-09T02:59:11.303Z,55.83
2023-01-09T03:02:28.273Z,56.63
2023-01-09T03:05:41.292Z,55.75
2023-01-09T03:08:32.248Z,53.40
2023-01-09T03:11:08.961Z,50.25
2023-01-09T03:13:55.290Z,59.83
2023-01-09T03:16:34.332Z,62.70
2023-01-09T03:19:24.260Z,49.20
2023-01-09T03:22:06.319Z,59.33
2023-01-09T03:24:46.272Z,55.28
2023-01-09T03:27:34.260Z,56.75
2023-01-09T03:30:15.253Z,59.65
2023-01-09T03:32:56.371Z,58.00
2023-01-09T03:35:37.265Z,67.75
2023-01-09T03:38:25.262Z,62.92
2023-01-09T03:41:06.294Z,60.92
2023-01-09T03:43:48.420Z,57.80
2023-01-09T03:46:28.282Z,60.80
2023-01-09T03:49:16.274Z,57.90
2023-01-09T03:51:56.259Z,54.55
2023-01-09T03:54:46.268Z,56.75
2023-01-09T03:57:20.212Z,64.18
2023-01-09T04:00:08.255Z,57.50
2023-01-09T04:02:43.107Z,60.45
2023-01-09T04:05:30.235Z,69.60
2023-01-09T04:08:11.278Z,66.93
2023-01-09T04:10:53.338Z,66.75
2023-01-09T04:13:33.255Z,63.95
2023-01-09T04:16:21.323Z,65.10
2023-01-09T04:18:55.211Z,57.35
2023-01-09T04:21:43.293Z,72.25
2023-01-09T04:24:30.247Z,67.22
2023-01-09T04:27:04.324Z,68.80
2023-01-09T04:29:52.305Z,64.75
2023-01-09T04:32:34.262Z,67.32
2023-01-09T04:35:22.248Z,66.32
2023-01-09T04:38:03.349Z,64.68
2023-01-09T04:40:43.298Z,66.97
2023-01-09T04:43:24.404Z,67.95
2023-01-09T04:46:05.391Z,65.05
2023-01-09T04:48:46.375Z,69.55
2023-01-09T04:51:26.283Z,74.03
2023-01-09T04:54:14.260Z,75.28
2023-01-09T04:56:48.290Z,72.20
2023-01-09T04:59:36.260Z,59.13
2023-01-09T05:02:17.298Z,61.20
2023-01-09T05:04:58.374Z,70.65
2023-01-09T05:07:38.259Z,67.75
2023-01-09T05:10:26.282Z,72.82
2023-01-09T05:13:00.211Z,75.97
2023-01-09T05:15:48.312Z,70.55
2023-01-09T05:18:29.293Z,70.65
2023-01-09T05:21:10.383Z,64.97
2023-01-09T05:23:50.261Z,66.53
2023-01-09T05:26:38.302Z,63.13
2023-01-09T05:29:12.270Z,72.40
2023-01-09T05:32:00.267Z,67.95
2023-01-09T05:34:41.248Z,65.57
2023-01-09T05:37:22.345Z,64.75
2023-01-09T05:40:02.271Z,69.07
2023-01-09T05:42:43.356Z,61.28
2023-01-09T05:45:24.294Z,63.90
2023-01-09T05:48:05.334Z,68.13
2023-01-09T05:50:45.302Z,78.43
2023-01-09T05:53:33.284Z,73.93
2023-01-09T05:56:14.257Z,74.43
2023-01-09T05:58:55.356Z,71.07
2023-01-09T06:01:35.311Z,71.10
2023-01-09T06:04:16.364Z,66.32
2023-01-09T06:06:56.302Z,69.32
2023-01-09T06:09:37.384Z,77.63
2023-01-09T06:12:17.267Z,65.25
2023-01-09T06:15:07.417Z,70.40
2023-01-09T06:17:49.291Z,71.85
2023-01-09T06:20:37.303Z,75.28
2023-01-09T06:23:13.312Z,70.95
2023-01-09T06:26:01.330Z,75.90
2023-01-09T06:28:44.559Z,76.85
2023-01-09T06:31:32.303Z,86.13
2023-01-09T06:34:06.197Z,67.18
2023-01-09T06:36:54.293Z,91.60
2023-01-09T06:39:35.307Z,68.28
2023-01-09T06:42:16.348Z,77.90
2023-01-09T06:44:56.313Z,78.25
2023-01-09T06:47:44.290Z,72.82
2023-01-09T06:50:18.469Z,85.22
2023-01-09T06:53:06.264Z,73.82
2023-01-09T06:55:47.815Z,66.38
2023-01-09T06:58:36.303Z,73.65
2023-01-09T07:01:17.411Z,74.53
2023-01-09T07:03:58.635Z,75.55
2023-01-09T07:06:38.303Z,66.28
2023-01-09T07:09:26.330Z,62.25
2023-01-09T07:12:00.287Z,76.20
2023-01-09T07:14:56.798Z,70.40
2023-01-09T07:17:51.279Z,79.78
2023-01-09T07:20:45.276Z,74.85
2023-01-09T07:23:33.293Z,77.07
2023-01-09T07:26:15.291Z,71.40
2023-01-09T07:29:02.408Z,83.00
2023-01-09T07:31:43.299Z,78.45
2023-01-09T07:34:23.283Z,80.55
2023-01-09T07:37:04.275Z,76.07
2023-01-09T07:39:59.287Z,78.57
2023-01-09T07:42:46.317Z,78.75
2023-01-09T07:45:20.430Z,71.57
2023-01-09T07:48:08.279Z,78.78
2023-01-09T07:50:42.343Z,72.68
2023-01-09T07:53:29.293Z,78.00
2023-01-09T07:56:10.321Z,74.20
2023-01-09T07:59:04.257Z,86.72
2023-01-09T08:01:51.390Z,77.72
2023-01-09T08:04:32.294Z,80.65
2023-01-09T08:07:19.306Z,79.22
2023-01-09T08:09:53.377Z,74.35
2023-01-09T08:12:40.305Z,75.90
2023-01-09T08:15:21.284Z,71.40
2023-01-09T08:18:15.297Z,80.28
2023-01-09T08:21:02.333Z,77.18
2023-01-09T08:23:52.276Z,72.05
2023-01-09T08:26:26.269Z,66.50
2023-01-09T08:29:14.314Z,68.53
2023-01-09T08:31:48.303Z,67.22
2023-01-09T08:34:36.447Z,67.68
2023-01-09T08:37:10.272Z,65.90
2023-01-09T08:39:58.307Z,68.97
2023-01-09T08:42:51.353Z,78.05
2023-01-09T08:45:57.336Z,70.55
2023-01-09T08:48:31.261Z,56.83
2023-01-09T08:51:19.304Z,69.43
2023-01-09T08:53:53.229Z,67.95
2023-01-09T08:56:41.318Z,74.88
2023-01-09T08:59:16.083Z,83.35
2023-01-09T09:02:03.313Z,72.50
2023-01-09T09:04:43.350Z,63.67
2023-01-09T09:07:34.300Z,54.28
2023-01-09T09:10:22.338Z,54.72
2023-01-09T09:12:57.744Z,67.53
2023-01-09T09:15:45.374Z,67.97
2023-01-09T09:18:19.373Z,64.82
2023-01-09T09:21:06.325Z,68.28
2023-01-09T09:23:47.326Z,69.90
2023-01-09T09:26:43.721Z,63.60
2023-01-09T09:29:31.279Z,63.13
2023-01-09T09:32:12.335Z,65.47
2023-01-09T09:34:59.335Z,66.97
2023-01-09T09:37:40.308Z,66.80
2023-01-09T09:40:39.313Z,60.33
2023-01-09T09:43:51.300Z,62.85
2023-01-09T09:46:42.402Z,54.78
2023-01-09T09:49:29.282Z,97.28
2023-01-09T09:52:39.435Z,67.53
2023-01-09T09:55:31.333Z,70.70
2023-01-09T09:58:07.397Z,70.90
2023-01-09T10:00:55.326Z,87.78
2023-01-09T10:03:34.178Z,92.78
2023-01-09T10:06:25.318Z,86.40
2023-01-09T10:09:28.371Z,87.55
2023-01-09T10:12:21.329Z,72.53
2023-01-09T10:14:55.403Z,74.00
2023-01-09T10:18:03.335Z,62.25
2023-01-09T10:20:46.366Z,67.78
2023-01-09T10:23:33.309Z,63.75
2023-01-09T10:26:17.362Z,70.85
2023-01-09T10:29:15.311Z,68.88
2023-01-09T10:32:09.311Z,92.28
2023-01-09T10:34:44.745Z,78.57
2023-01-09T10:37:53.344Z,76.85
2023-01-09T10:40:30.315Z,69.03
2023-01-09T10:43:41.359Z,72.07
2023-01-09T10:46:24.720Z,72.45
2023-01-09T10:49:15.284Z,85.80
2023-01-09T10:51:56.353Z,75.00
2023-01-09T10:54:44.301Z,76.25
2023-01-09T10:57:39.452Z,80.88
2023-01-09T11:00:26.315Z,70.22
2023-01-09T11:03:17.365Z,68.70
2023-01-09T11:05:58.325Z,67.82
2023-01-09T11:08:53.270Z,66.20
2023-01-09T11:11:44.327Z,75.13
2023-01-09T11:14:35.356Z,68.75
2023-01-09T11:17:26.333Z,77.10
2023-01-09T11:20:13.520Z,102.00
2023-01-09T11:23:03.311Z,90.53
2023-01-09T11:26:05.300Z,79.80
2023-01-09T11:29:23.328Z,82.72
2023-01-09T11:32:11.332Z,73.03
2023-01-09T11:34:52.334Z,75.47
2023-01-09T11:37:47.316Z,70.85
2023-01-09T11:40:37.321Z,72.28
2023-01-09T11:43:18.350Z,75.97
2023-01-09T11:46:18.336Z,71.28
2023-01-09T11:49:07.315Z,66.53
2023-01-09T11:51:42.402Z,71.68
2023-01-09T11:54:37.406Z,72.38
2023-01-09T11:57:11.725Z,95.38
2023-01-09T12:00:00.340Z,90.18
2023-01-09T12:02:50.911Z,90.60
2023-01-09T12:06:02.289Z,119.20
2023-01-09T12:09:01.308Z,100.70
2023-01-09T12:11:48.408Z,97.18
2023-01-09T12:14:39.423Z,88.75
2023-01-09T12:17:38.299Z,97.70
2023-01-09T12:20:35.289Z,103.72
2023-01-09T12:23:19.727Z,105.25
2023-01-09T12:26:16.381Z,95.75
2023-01-09T12:29:10.594Z,84.50
2023-01-09T12:31:58.422Z,83.82
2023-01-09T12:34:47.344Z,78.85
2023-01-09T12:37:38.357Z,75.25
2023-01-09T12:40:37.470Z,72.88
2023-01-09T12:43:32.392Z,78.97
2023-01-09T12:46:12.347Z,86.03
2023-01-09T12:49:08.508Z,82.45
2023-01-09T12:51:45.599Z,88.85
2023-01-09T12:54:55.344Z,83.88
2023-01-09T12:57:40.306Z,87.38
2023-01-09T13:00:28.312Z,91.30
2023-01-09T13:03:12.993Z,89.90
2023-01-09T13:06:04.292Z,86.13
2023-01-09T13:08:49.352Z,89.18
2023-01-09T13:11:48.357Z,97.65
2023-01-09T13:14:24.380Z,98.05
2023-01-09T13:17:13.374Z,103.68
2023-01-09T13:20:07.347Z,93.30
2023-01-09T13:22:59.347Z,107.90
2023-01-09T13:25:48.348Z,94.32
2023-01-09T13:28:39.347Z,99.88
2023-01-09T13:31:39.357Z,103.68
2023-01-09T13:34:30.356Z,106.57
2023-01-09T13:37:11.401Z,105.20
2023-01-09T13:40:19.344Z,102.70
2023-01-09T13:43:17.322Z,84.93
2023-01-09T13:45:57.506Z,90.35
2023-01-09T13:48:48.319Z,104.15
2023-01-09T13:51:50.407Z,100.53
2023-01-09T13:55:05.433Z,102.43
2023-01-09T13:58:14.407Z,84.82
2023-01-09T14:00:48.514Z,112.88
2023-01-09T14:03:39.444Z,105.78
2023-01-09T14:06:18.497Z,117.90
2023-01-09T14:09:20.383Z,93.28
2023-01-09T14:11:55.473Z,115.22
2023-01-09T14:14:44.336Z,109.03
2023-01-09T14:17:31.708Z,110.65
2023-01-09T14:20:14.365Z,107.90
2023-01-09T14:22:56.520Z,99.40
2023-01-09T14:25:46.343Z,115.03
2023-01-09T14:28:34.315Z,103.28
2023-01-09T14:31:09.111Z,110.15
2023-01-09T14:34:05.741Z,124.80
2023-01-09T14:36:52.348Z,116.97
2023-01-09T14:39:41.389Z,113.35
2023-01-09T14:42:29.379Z,118.68
2023-01-09T14:45:19.403Z,103.82
2023-01-09T14:48:09.323Z,106.97
2023-01-09T14:51:00.459Z,114.18
2023-01-09T14:53:43.347Z,127.63
2023-01-09T14:56:43.316Z,109.53
2023-01-09T14:59:17.386Z,102.55
2023-01-09T15:02:05.399Z,102.78
2023-01-09T15:04:43.377Z,95.72
2023-01-09T15:07:39.316Z,101.18
2023-01-09T15:10:18.408Z,94.80
2023-01-09T15:13:08.342Z,106.95
2023-01-09T15:15:49.004Z,104.57
2023-01-09T15:18:39.356Z,111.28
2023-01-09T15:21:19.951Z,108.93
2023-01-09T15:24:07.376Z,112.90
2023-01-09T15:26:47.351Z,103.95
2023-01-09T15:29:28.756Z,97.97
2023-01-09T15:32:14.350Z,91.50
2023-01-09T15:35:03.328Z,101.67
2023-01-09T15:37:39.312Z,113.57
2023-01-09T15:40:35.356Z,105.10
2023-01-09T15:43:14.591Z,100.03
2023-01-09T15:46:02.391Z,105.80
2023-01-09T15:48:43.325Z,108.60
2023-01-09T15:51:24.436Z,103.28
2023-01-09T15:54:07.377Z,99.38
2023-01-09T15:56:48.429Z,100.95
2023-01-09T15:59:34.344Z,110.03
2023-01-09T16:02:45.348Z,102.93
2023-01-09T16:05:26.347Z,95.25
2023-01-09T16:08:07.435Z,109.68
2023-01-09T16:10:47.388Z,103.75
2023-01-09T16:13:29.404Z,107.55
2023-01-09T16:16:10.367Z,101.20
2023-01-09T16:19:08.340Z,118.90
2023-01-09T16:21:42.323Z,109.25
2023-01-09T16:24:36.379Z,111.95
2023-01-09T16:27:26.971Z,113.32
2023-01-09T16:30:15.377Z,100.85
2023-01-09T16:32:58.376Z,105.05
2023-01-09T16:35:46.393Z,101.03
2023-01-09T16:38:21.153Z,106.60
2023-01-09T16:41:36.005Z,112.40
2023-01-09T16:44:10.773Z,104.00
2023-01-09T16:46:58.372Z,102.30
2023-01-09T16:49:39.352Z,104.93
2023-01-09T16:52:24.432Z,98.80
2023-01-09T16:55:04.370Z,103.55
2023-01-09T16:57:45.435Z,85.93
2023-01-09T17:00:27.336Z,106.57
2023-01-09T17:03:10.458Z,121.28
2023-01-09T17:05:51.515Z,132.48
2023-01-09T17:08:33.366Z,125.15
2023-01-09T17:11:21.358Z,132.43
2023-01-09T17:14:01.383Z,136.25
2023-01-09T17:16:52.400Z,117.80
2023-01-09T17:19:40.386Z,118.88
2023-01-09T17:22:14.449Z,109.97
2023-01-09T17:25:20.340Z,99.22
2023-01-09T17:28:19.368Z,105.90
2023-01-09T17:31:08.352Z,104.35
2023-01-09T17:33:42.577Z,99.45
2023-01-09T17:36:38.353Z,109.40
2023-01-09T17:39:12.419Z,115.75
2023-01-09T17:42:00.384Z,115.68
2023-01-09T17:44:41.463Z,101.32
2023-01-09T17:47:28.398Z,105.30
2023-01-09T17:50:03.091Z,112.40
2023-01-09T17:52:49.404Z,108.10
2023-01-09T17:55:30.406Z,108.15
2023-01-09T17:58:37.389Z,124.32
2023-01-09T18:01:25.420Z,136.77
2023-01-09T18:03:59.530Z,139.40
2023-01-09T18:06:47.367Z,172.65
2023-01-09T18:09:22.451Z,167.75
2023-01-09T18:12:09.347Z,172.35
2023-01-09T18:14:44.461Z,149.57
2023-01-09T18:17:31.347Z,138.07
2023-01-09T18:20:05.601Z,142.63
2023-01-09T18:22:54.361Z,167.38
2023-01-09T18:25:35.369Z,191.60
2023-01-09T18:28:29.352Z,139.15
2023-01-09T18:31:16.466Z,129.75
2023-01-09T18:33:53.525Z,158.00
2023-01-09T18:36:41.454Z,127.38
2023-01-09T18:39:15.596Z,130.23
2023-01-09T18:42:03.376Z,155.30
2023-01-09T18:44:37.553Z,201.45
2023-01-09T18:47:24.426Z,217.00
2023-01-09T18:49:58.524Z,184.90
2023-01-09T18:52:45.400Z,202.38
2023-01-09T18:55:26.458Z,174.98
2023-01-09T18:58:09.463Z,157.65
2023-01-09T19:00:51.410Z,158.52
2023-01-09T19:03:33.492Z,134.02
2023-01-09T19:06:21.419Z,145.50
2023-01-09T19:08:55.421Z,120.88
2023-01-09T19:11:43.382Z,112.55
2023-01-09T19:14:17.485Z,99.72
2023-01-09T19:17:05.394Z,92.15
2023-01-09T19:19:46.370Z,107.70
2023-01-09T19:22:27.541Z,101.28
2023-01-09T19:25:07.387Z,101.85
2023-01-09T19:27:48.492Z,116.15
2023-01-09T19:30:29.407Z,97.82
2023-01-09T19:33:10.515Z,120.13
2023-01-09T19:35:55.391Z,112.10
2023-01-09T19:38:43.449Z,108.47
2023-01-09T19:41:21.192Z,113.00
2023-01-09T19:46:41.390Z,112.75
2023-01-09T19:49:29.390Z,117.53
2023-01-09T19:52:03.381Z,108.35
2023-01-09T19:54:51.405Z,106.15
2023-01-09T19:57:25.428Z,109.57
2023-01-09T20:00:13.455Z,95.43
2023-01-09T20:02:49.476Z,104.28
2023-01-09T20:05:37.417Z,113.45
2023-01-09T20:08:11.602Z,92.00
2023-01-09T20:10:59.425Z,97.53
2023-01-09T20:13:36.370Z,99.07
2023-01-09T20:18:58.267Z,94.63
2023-01-09T20:21:46.425Z,101.03
2023-01-09T20:24:26.420Z,92.43
2023-01-09T20:27:07.518Z,94.15
2023-01-09T20:29:55.492Z,87.63
2023-01-09T20:32:30.010Z,73.55
2023-01-09T20:35:17.482Z,76.35
2023-01-09T20:37:51.452Z,75.82
2023-01-09T20:40:39.428Z,79.18
2023-01-09T20:43:20.384Z,74.53
2023-01-09T20:46:18.367Z,62.15
2023-01-09T20:49:06.533Z,59.80
2023-01-09T20:51:48.386Z,50.15
2023-01-09T20:54:42.365Z,60.42
2023-01-09T20:57:29.378Z,63.55
2023-01-09T21:00:03.516Z,56.85
2023-01-09T21:02:50.430Z,44.80
2023-01-09T21:05:38.402Z,48.05
2023-01-09T21:08:18.465Z,25.05
2023-01-09T21:11:12.440Z,36.97
2023-01-09T21:13:52.412Z,28.42
2023-01-09T21:16:33.724Z,39.80
2023-01-09T21:19:14.386Z,31.63
2023-01-09T21:22:02.410Z,32.65
2023-01-09T21:24:36.349Z,33.47
2023-01-09T21:27:24.421Z,41.90
2023-01-09T21:30:05.419Z,34.58
2023-01-09T21:32:53.373Z,42.78
2023-01-09T21:35:27.407Z,37.83
2023-01-09T21:38:15.388Z,21.75
2023-01-09T21:40:51.175Z,39.35
2023-01-09T21:44:00.410Z,31.33
2023-01-09T21:46:59.381Z,30.17
2023-01-09T21:49:40.590Z,41.05
2023-01-09T21:52:21.372Z,43.22
2023-01-09T21:55:02.483Z,38.90
2023-01-09T21:57:43.380Z,44.85
2023-01-09T22:00:31.405Z,35.97
2023-01-09T22:03:07.898Z,46.05
2023-01-09T22:05:55.408Z,51.20
2023-01-09T22:08:29.352Z,40.13
2023-01-09T22:11:17.383Z,36.63
2023-01-09T22:13:52.074Z,45.45
2023-01-09T22:16:39.412Z,40.35
2023-01-09T22:19:14.617Z,42.75
2023-01-09T22:22:02.382Z,44.80
2023-01-09T22:24:36.530Z,21.80
2023-01-09T22:27:24.448Z,38.92
2023-01-09T22:29:58.388Z,38.85
2023-01-09T22:32:46.437Z,17.60
2023-01-09T22:35:26.432Z,34.22
2023-01-09T22:38:07.482Z,48.28
2023-01-09T22:40:48.394Z,43.78
2023-01-09T22:43:29.502Z,32.75
2023-01-09T22:46:11.657Z,39.53
2023-01-09T22:48:52.506Z,45.00
2023-01-09T22:51:32.376Z,48.90
2023-01-09T22:54:27.414Z,42.03
2023-01-09T22:57:21.400Z,41.58
2023-01-09T23:00:09.420Z,43.53
2023-01-09T23:02:43.845Z,43.38
2023-01-09T23:05:30.420Z,38.50
2023-01-09T23:08:11.409Z,41.38
2023-01-09T23:11:05.370Z,42.22
2023-01-09T23:13:52.410Z,36.00
2023-01-09T23:16:26.508Z,33.22
2023-01-09T23:19:15.447Z,32.70
2023-01-09T23:21:49.526Z,35.78
2023-01-09T23:24:37.380Z,44.47
2023-01-09T23:27:11.582Z,36.67
2023-01-09T23:29:59.387Z,38.42
2023-01-09T23:32:40.402Z,28.45
2023-01-09T23:35:34.417Z,28.05
2023-01-09T23:38:22.391Z,30.20
2023-01-09T23:41:09.417Z,28.90
2023-01-09T23:43:56.389Z,25.55
2023-01-09T23:46:30.501Z,28.45
2023-01-09T23:49:17.426Z,27.25
2023-01-09T23:51:58.414Z,25.63
2023-01-09T23:54:52.410Z,23.10
2023-01-09T23:57:40.428Z,23.88
